createdAt,value
2023-02-14T00:01:13.171Z,15.15
2023-02-14T00:03:39.985Z,14.70
2023-02-14T00:06:14.093Z,15.27
2023-02-14T00:08:44.253Z,14.73
2023-02-14T00:11:12.120Z,15.45
2023-02-14T00:13:38.698Z,15.63
2023-02-14T00:16:05.326Z,14.77
2023-02-14T00:18:50.350Z,14.70
2023-02-14T00:21:16.874Z,15.25
2023-02-14T00:23:43.351Z,13.75
2023-02-14T00:26:15.005Z,14.38
2023-02-14T00:28:41.980Z,14.38
2023-02-14T00:31:08.709Z,13.70
2023-02-14T00:33:35.476Z,14.15
2023-02-14T00:36:07.180Z,15.00
2023-02-14T00:41:00.868Z,14.30
2023-02-14T00:43:28.666Z,14.10
2023-02-14T00:45:55.178Z,13.02
2023-02-14T00:48:21.745Z,13.57
2023-02-14T00:50:48.381Z,13.32
2023-02-14T00:53:14.924Z,13.18
2023-02-14T00:55:41.387Z,13.25
2023-02-14T00:58:07.886Z,12.82
2023-02-14T01:00:36.950Z,13.18
2023-02-14T01:03:03.494Z,13.50
2023-02-14T01:05:32.676Z,13.95
2023-02-14T01:07:59.160Z,13.18
2023-02-14T01:10:25.676Z,13.00
2023-02-14T01:12:52.118Z,13.55
2023-02-14T01:15:18.642Z,14.27
2023-02-14T01:17:45.299Z,14.40
2023-02-14T01:20:11.955Z,13.52
2023-02-14T01:22:38.802Z,13.20
2023-02-14T01:25:05.567Z,13.13
2023-02-14T01:27:34.671Z,13.90
2023-02-14T01:30:01.253Z,13.68
2023-02-14T01:32:31.284Z,12.82
2023-02-14T01:34:57.919Z,14.77
2023-02-14T01:37:24.457Z,13.38
2023-02-14T01:39:50.927Z,13.40
2023-02-14T01:42:17.670Z,12.38
2023-02-14T01:44:50.226Z,13.07
2023-02-14T01:47:18.161Z,13.13
2023-02-14T01:49:49.670Z,13.27
2023-02-14T01:52:31.110Z,12.35
2023-02-14T01:55:06.438Z,13.02
2023-02-14T01:57:42.823Z,15.18
2023-02-14T02:00:28.751Z,14.60
2023-02-14T02:02:58.789Z,15.20
2023-02-14T02:05:28.852Z,16.85
2023-02-14T02:07:58.862Z,19.48
2023-02-14T02:10:25.464Z,20.75
2023-02-14T02:12:53.629Z,20.85
2023-02-14T02:15:25.468Z,20.83
2023-02-14T02:18:18.908Z,23.48
2023-02-14T02:21:00.294Z,22.42
2023-02-14T02:23:48.437Z,23.63
2023-02-14T02:26:48.305Z,20.85
2023-02-14T02:29:27.586Z,19.67
2023-02-14T02:32:19.963Z,18.50
2023-02-14T02:35:16.138Z,16.42
2023-02-14T02:38:09.432Z,15.85
2023-02-14T02:40:48.177Z,16.05
2023-02-14T02:43:46.748Z,16.13
2023-02-14T02:46:49.013Z,16.25
2023-02-14T02:49:49.512Z,16.50
2023-02-14T02:53:00.467Z,15.63
2023-02-14T02:56:14.574Z,14.63
2023-02-14T02:58:53.826Z,15.13
2023-02-14T03:01:28.297Z,13.95
2023-02-14T03:04:23.834Z,14.48
2023-02-14T03:06:51.412Z,14.10
2023-02-14T03:09:20.723Z,13.23
2023-02-14T03:11:59.616Z,13.25
2023-02-14T03:14:35.479Z,12.20
2023-02-14T03:17:19.059Z,11.43
2023-02-14T03:20:17.553Z,11.15
2023-02-14T03:23:07.267Z,11.30
2023-02-14T03:25:46.760Z,10.25
2023-02-14T03:28:17.531Z,9.15
2023-02-14T03:30:54.214Z,10.73
2023-02-14T03:33:50.616Z,11.05
2023-02-14T03:36:23.644Z,9.50
2023-02-14T03:38:59.676Z,9.57
2023-02-14T03:41:31.923Z,9.65
2023-02-14T03:44:03.248Z,9.57
2023-02-14T03:46:51.908Z,8.45
2023-02-14T03:49:26.998Z,9.38
2023-02-14T03:51:56.079Z,8.65
2023-02-14T03:54:25.918Z,8.65
2023-02-14T03:57:00.296Z,7.78
2023-02-14T03:59:28.988Z,7.97
2023-02-14T04:02:04.105Z,8.65
2023-02-14T04:04:35.892Z,8.35
2023-02-14T04:07:11.298Z,7.70
2023-02-14T04:09:38.029Z,7.10
2023-02-14T04:12:04.579Z,7.57
2023-02-14T04:14:31.060Z,7.15
2023-02-14T04:17:20.574Z,7.32
2023-02-14T04:19:47.144Z,6.60
2023-02-14T04:22:13.791Z,6.72
2023-02-14T04:24:40.319Z,6.72
2023-02-14T04:27:12.828Z,6.88
2023-02-14T04:29:44.582Z,6.38
2023-02-14T04:32:16.293Z,6.43
2023-02-14T04:34:43.496Z,6.45
2023-02-14T04:37:10.432Z,7.10
2023-02-14T04:39:38.387Z,5.75
2023-02-14T04:42:05.241Z,5.90
2023-02-14T04:44:33.911Z,5.88
2023-02-14T04:47:01.404Z,6.47
2023-02-14T04:49:31.057Z,5.70
2023-02-14T04:51:57.902Z,5.60
2023-02-14T04:54:24.451Z,5.82
2023-02-14T04:56:51.164Z,5.53
2023-02-14T04:59:17.729Z,5.88
2023-02-14T05:01:47.385Z,6.07
2023-02-14T05:04:13.898Z,5.93
2023-02-14T05:06:40.555Z,5.53
2023-02-14T05:09:07.147Z,5.88
2023-02-14T05:11:36.892Z,5.68
2023-02-14T05:14:03.413Z,5.30
2023-02-14T05:16:30.045Z,6.20
2023-02-14T05:18:56.552Z,5.57
2023-02-14T05:21:23.105Z,5.30
2023-02-14T05:23:52.219Z,5.57
2023-02-14T05:26:18.734Z,5.32
2023-02-14T05:28:45.210Z,5.57
2023-02-14T05:31:11.873Z,5.30
2023-02-14T05:33:38.396Z,5.75
2023-02-14T05:36:08.153Z,5.88
2023-02-14T05:38:37.877Z,6.05
2023-02-14T05:41:04.572Z,6.53
2023-02-14T05:43:31.394Z,5.90
2023-02-14T05:45:58.486Z,6.38
2023-02-14T05:48:25.505Z,6.63
2023-02-14T05:50:52.116Z,6.05
2023-02-14T05:53:18.763Z,6.63
2023-02-14T05:55:45.240Z,6.05
2023-02-14T05:58:12.666Z,6.45
2023-02-14T06:00:41.232Z,6.22
2023-02-14T06:03:08.301Z,5.82
2023-02-14T06:05:34.786Z,6.10
2023-02-14T06:08:01.517Z,6.03
2023-02-14T06:10:28.084Z,5.47
2023-02-14T06:12:54.986Z,5.57
2023-02-14T06:15:21.601Z,5.90
2023-02-14T06:17:55.475Z,5.57
2023-02-14T06:20:24.066Z,5.80
2023-02-14T06:22:51.613Z,5.57
2023-02-14T06:25:18.209Z,6.05
2023-02-14T06:27:44.718Z,5.43
2023-02-14T06:30:12.490Z,5.70
2023-02-14T06:32:39.595Z,5.50
2023-02-14T06:35:07.576Z,6.00
2023-02-14T06:37:34.656Z,6.10
2023-02-14T06:40:01.863Z,6.57
2023-02-14T06:42:28.318Z,6.05
2023-02-14T06:44:54.961Z,6.40
2023-02-14T06:47:21.460Z,6.78
2023-02-14T06:49:47.984Z,7.95
2023-02-14T06:52:14.559Z,8.20
2023-02-14T06:54:40.999Z,8.65
2023-02-14T06:57:07.724Z,9.30
2023-02-14T06:59:34.217Z,8.48
2023-02-14T07:02:00.833Z,7.80
2023-02-14T07:04:30.871Z,7.68
2023-02-14T07:06:58.174Z,8.02
2023-02-14T07:09:24.734Z,7.18
2023-02-14T07:11:51.218Z,8.30
2023-02-14T07:14:17.665Z,8.90
2023-02-14T07:16:44.180Z,8.68
2023-02-14T07:19:10.720Z,8.52
2023-02-14T07:21:37.207Z,8.95
2023-02-14T07:24:03.713Z,8.65
2023-02-14T07:26:30.170Z,8.50
2023-02-14T07:28:56.706Z,9.00
2023-02-14T07:31:23.545Z,9.98
2023-02-14T07:33:53.067Z,9.75
2023-02-14T07:36:19.707Z,10.52
2023-02-14T07:38:46.285Z,10.38
2023-02-14T07:41:12.730Z,10.05
2023-02-14T07:43:39.805Z,10.15
2023-02-14T07:46:06.848Z,10.95
2023-02-14T07:48:34.502Z,9.73
2023-02-14T07:51:01.727Z,9.73
2023-02-14T07:53:28.561Z,11.15
2023-02-14T07:55:55.123Z,10.23
2023-02-14T07:58:21.868Z,10.55
2023-02-14T08:00:48.603Z,11.70
2023-02-14T08:03:17.877Z,10.95
2023-02-14T08:05:44.429Z,11.43
2023-02-14T08:08:10.930Z,11.57
2023-02-14T08:10:37.428Z,11.27
2023-02-14T08:13:03.940Z,12.35
2023-02-14T08:15:53.717Z,11.05
2023-02-14T08:18:22.967Z,11.80
2023-02-14T08:20:52.387Z,10.52
2023-02-14T08:23:20.217Z,10.93
2023-02-14T08:25:49.088Z,10.18
2023-02-14T08:28:16.052Z,10.88
2023-02-14T08:30:43.488Z,11.82
2023-02-14T08:33:10.230Z,11.35
2023-02-14T08:35:37.038Z,11.35
2023-02-14T08:38:04.397Z,11.82
2023-02-14T08:40:31.451Z,11.63
2023-02-14T08:42:57.950Z,11.57
2023-02-14T08:45:24.487Z,12.43
2023-02-14T08:47:51.012Z,11.88
2023-02-14T08:50:18.847Z,10.32
2023-02-14T08:52:45.806Z,11.20
2023-02-14T08:55:13.792Z,11.65
2023-02-14T08:57:40.757Z,12.35
2023-02-14T09:00:11.200Z,12.98
2023-02-14T09:02:37.824Z,12.60
2023-02-14T09:05:04.546Z,12.40
2023-02-14T09:07:31.537Z,12.65
2023-02-14T09:10:01.485Z,12.77
2023-02-14T09:12:28.083Z,13.48
2023-02-14T09:14:54.586Z,13.38
2023-02-14T09:17:21.125Z,13.88
2023-02-14T09:19:47.551Z,13.95
2023-02-14T09:22:14.117Z,12.90
2023-02-14T09:24:41.434Z,12.50
2023-02-14T09:27:08.328Z,11.82
2023-02-14T09:29:35.290Z,13.25
2023-02-14T09:32:02.541Z,13.23
2023-02-14T09:34:32.471Z,12.00
2023-02-14T09:36:58.964Z,13.40
2023-02-14T09:39:25.605Z,14.00
2023-02-14T09:42:09.872Z,12.88
2023-02-14T09:44:51.636Z,11.93
2023-02-14T09:47:41.573Z,11.50
2023-02-14T09:50:18.252Z,11.10
2023-02-14T09:52:48.653Z,11.05
2023-02-14T09:55:17.356Z,11.95
2023-02-14T09:57:49.778Z,10.18
2023-02-14T10:00:41.114Z,11.15
2023-02-14T10:03:26.276Z,12.97
2023-02-14T10:06:06.666Z,12.13
2023-02-14T10:09:01.898Z,12.00
2023-02-14T10:11:28.635Z,12.98
2023-02-14T10:14:02.057Z,13.02
2023-02-14T10:16:33.580Z,12.85
2023-02-14T10:19:07.705Z,11.95
2023-02-14T10:21:41.805Z,11.75
2023-02-14T10:24:21.085Z,11.13
2023-02-14T10:26:50.817Z,10.95
2023-02-14T10:29:19.382Z,11.70
2023-02-14T10:32:03.062Z,11.02
2023-02-14T10:34:45.845Z,11.25
2023-02-14T10:37:30.359Z,10.70
2023-02-14T10:39:59.803Z,10.38
2023-02-14T10:42:55.191Z,9.45
2023-02-14T10:45:45.375Z,8.48
2023-02-14T10:48:31.253Z,9.98
2023-02-14T10:51:14.267Z,9.35
2023-02-14T10:53:52.944Z,9.50
2023-02-14T10:56:40.091Z,9.70
2023-02-14T10:59:35.801Z,10.10
2023-02-14T11:02:02.364Z,8.65
2023-02-14T11:04:32.264Z,8.48
2023-02-14T11:06:58.711Z,8.65
2023-02-14T11:09:25.201Z,8.65
2023-02-14T11:11:56.091Z,10.13
2023-02-14T11:14:33.552Z,10.02
2023-02-14T11:17:20.129Z,10.20
2023-02-14T11:20:02.586Z,11.25
2023-02-14T11:22:34.664Z,9.98
2023-02-14T11:25:20.055Z,10.82
2023-02-14T11:27:50.065Z,9.50
2023-02-14T11:30:41.469Z,9.60
2023-02-14T11:33:28.741Z,10.15
2023-02-14T11:35:55.885Z,8.82
2023-02-14T11:38:33.949Z,9.00
2023-02-14T11:41:01.034Z,9.77
2023-02-14T11:43:49.246Z,10.38
2023-02-14T11:46:22.852Z,10.18
2023-02-14T11:48:58.380Z,10.50
2023-02-14T11:51:34.887Z,10.13
2023-02-14T11:54:05.308Z,10.32
2023-02-14T11:56:49.555Z,10.55
2023-02-14T11:59:28.602Z,10.75
2023-02-14T12:01:58.843Z,10.27
2023-02-14T12:04:38.230Z,10.20
2023-02-14T12:07:21.170Z,10.30
2023-02-14T12:10:07.185Z,10.40
2023-02-14T12:12:42.964Z,11.65
2023-02-14T12:15:36.493Z,10.88
2023-02-14T12:18:40.517Z,11.35
2023-02-14T12:21:12.755Z,10.85
2023-02-14T12:23:51.318Z,12.05
2023-02-14T12:26:47.778Z,11.60
2023-02-14T12:29:31.420Z,10.82
2023-02-14T12:32:03.167Z,11.77
2023-02-14T12:34:30.065Z,11.77
2023-02-14T12:37:09.426Z,12.07
2023-02-14T12:40:12.114Z,11.98
2023-02-14T12:42:38.607Z,11.57
2023-02-14T12:45:19.971Z,12.48
2023-02-14T12:47:59.955Z,12.68
2023-02-14T12:50:59.926Z,12.20
2023-02-14T12:54:18.423Z,12.50
2023-02-14T12:57:35.335Z,11.55
2023-02-14T13:00:05.296Z,12.00
2023-02-14T13:02:50.540Z,12.73
2023-02-14T13:05:31.749Z,12.48
2023-02-14T13:08:37.847Z,11.90
2023-02-14T13:11:07.312Z,11.45
2023-02-14T13:13:36.666Z,12.73
2023-02-14T13:16:06.223Z,12.75
2023-02-14T13:18:58.045Z,12.45
2023-02-14T13:21:28.873Z,11.75
2023-02-14T13:24:01.963Z,13.85
2023-02-14T13:26:53.837Z,12.25
2023-02-14T13:29:26.312Z,12.32
2023-02-14T13:31:58.748Z,11.70
2023-02-14T13:34:39.272Z,12.55
2023-02-14T13:37:11.471Z,11.38
2023-02-14T13:39:43.920Z,11.52
2023-02-14T13:42:11.335Z,12.15
2023-02-14T13:44:50.672Z,13.30
2023-02-14T13:47:23.246Z,13.00
2023-02-14T13:49:59.535Z,12.45
2023-02-14T13:52:39.654Z,13.18
2023-02-14T13:55:09.921Z,14.40
2023-02-14T13:57:38.709Z,13.45
2023-02-14T14:00:17.250Z,14.07
2023-02-14T14:02:54.677Z,14.70
2023-02-14T14:05:48.692Z,14.15
2023-02-14T14:08:20.945Z,15.32
2023-02-14T14:10:55.753Z,13.80
2023-02-14T14:13:40.610Z,14.32
2023-02-14T14:16:24.229Z,15.18
2023-02-14T14:19:00.531Z,14.15
2023-02-14T14:21:39.098Z,14.18
2023-02-14T14:24:12.635Z,14.43
2023-02-14T14:26:50.056Z,13.50
2023-02-14T14:29:22.513Z,13.95
2023-02-14T14:31:55.357Z,14.20
2023-02-14T14:34:25.742Z,13.82
2023-02-14T14:37:16.175Z,14.27
2023-02-14T14:39:42.755Z,13.27
2023-02-14T14:42:16.430Z,13.35
2023-02-14T14:44:50.637Z,13.50
2023-02-14T14:47:21.910Z,14.30
2023-02-14T14:49:48.790Z,14.05
2023-02-14T14:52:34.921Z,13.90
2023-02-14T14:55:04.876Z,13.43
2023-02-14T14:57:31.432Z,13.35
2023-02-14T15:00:18.616Z,14.05
2023-02-14T15:03:14.648Z,13.75
2023-02-14T15:05:43.763Z,13.75
2023-02-14T15:08:32.214Z,14.25
2023-02-14T15:11:06.231Z,13.82
2023-02-14T15:13:49.943Z,13.23
2023-02-14T15:16:47.087Z,14.15
2023-02-14T15:19:37.287Z,14.40
2023-02-14T15:22:18.607Z,14.60
2023-02-14T15:24:45.792Z,15.20
2023-02-14T15:27:16.661Z,14.65
2023-02-14T15:30:04.529Z,17.33
2023-02-14T15:32:34.571Z,16.45
2023-02-14T15:35:03.590Z,15.55
2023-02-14T15:37:31.215Z,16.50
2023-02-14T15:39:58.412Z,16.27
2023-02-14T15:42:33.170Z,16.85
2023-02-14T15:45:24.046Z,17.23
2023-02-14T15:47:53.892Z,16.45
2023-02-14T15:50:27.719Z,17.65
2023-02-14T15:53:02.926Z,17.17
2023-02-14T15:55:30.731Z,18.10
2023-02-14T15:58:03.915Z,17.60
2023-02-14T16:00:31.732Z,17.00
2023-02-14T16:03:03.068Z,18.25
2023-02-14T16:05:29.613Z,18.15
2023-02-14T16:08:03.672Z,18.30
2023-02-14T16:10:39.365Z,19.67
2023-02-14T16:13:20.298Z,19.52
2023-02-14T16:16:16.958Z,19.30
2023-02-14T16:18:47.544Z,19.17
2023-02-14T16:21:26.829Z,20.33
2023-02-14T16:24:05.457Z,19.38
2023-02-14T16:26:33.133Z,19.13
2023-02-14T16:29:03.700Z,20.42
2023-02-14T16:31:30.295Z,19.63
2023-02-14T16:33:56.865Z,19.80
2023-02-14T16:36:27.533Z,19.95
2023-02-14T16:38:54.482Z,20.90
2023-02-14T16:41:24.244Z,20.25
2023-02-14T16:43:50.764Z,19.80
2023-02-14T16:46:21.090Z,20.30
2023-02-14T16:48:51.984Z,21.90
2023-02-14T16:51:24.582Z,20.90
2023-02-14T16:53:51.270Z,20.88
2023-02-14T16:56:24.017Z,21.17
2023-02-14T16:58:50.460Z,20.88
2023-02-14T17:01:18.950Z,21.88
2023-02-14T17:03:45.460Z,20.48
2023-02-14T17:06:19.048Z,20.17
2023-02-14T17:08:50.383Z,20.23
2023-02-14T17:11:17.258Z,22.27
2023-02-14T17:13:48.452Z,21.23
2023-02-14T17:16:16.582Z,21.23
2023-02-14T17:18:47.653Z,20.08
2023-02-14T17:21:15.938Z,21.53
2023-02-14T17:23:42.750Z,18.98
2023-02-14T17:26:11.136Z,20.45
2023-02-14T17:28:37.847Z,21.95
2023-02-14T17:31:04.722Z,21.58
2023-02-14T17:33:32.654Z,21.40
2023-02-14T17:36:12.073Z,19.85
2023-02-14T17:38:39.506Z,22.92
2023-02-14T17:41:18.651Z,23.33
2023-02-14T17:43:46.606Z,22.02
2023-02-14T17:46:16.265Z,23.27
2023-02-14T17:48:46.499Z,22.45
2023-02-14T17:51:14.897Z,21.17
2023-02-14T17:53:41.742Z,21.30
2023-02-14T17:56:14.576Z,23.50
2023-02-14T17:58:41.318Z,22.85
2023-02-14T18:01:11.286Z,25.88
2023-02-14T18:03:38.967Z,24.77
2023-02-14T18:06:06.760Z,31.83
2023-02-14T18:08:41.061Z,33.47
2023-02-14T18:11:09.627Z,41.05
2023-02-14T18:13:39.802Z,46.25
2023-02-14T18:16:10.325Z,41.90
2023-02-14T18:18:37.629Z,44.72
2023-02-14T18:21:06.397Z,33.42
2023-02-14T18:23:36.576Z,31.98
2023-02-14T18:26:07.004Z,25.27
2023-02-14T18:28:37.780Z,27.33
2023-02-14T18:31:10.388Z,26.17
2023-02-14T18:33:38.151Z,26.50
2023-02-14T18:36:07.249Z,26.63
2023-02-14T18:38:34.757Z,26.77
2023-02-14T18:41:13.099Z,25.70
2023-02-14T18:43:44.593Z,25.80
2023-02-14T18:46:13.760Z,25.73
2023-02-14T18:48:40.640Z,24.40
2023-02-14T18:51:07.038Z,23.45
2023-02-14T18:53:33.622Z,22.08
2023-02-14T18:56:03.934Z,21.20
2023-02-14T18:58:30.406Z,21.35
2023-02-14T19:00:57.521Z,21.48
2023-02-14T19:03:23.996Z,21.25
2023-02-14T19:05:53.502Z,21.38
2023-02-14T19:08:20.069Z,23.92
2023-02-14T19:10:46.545Z,23.25
2023-02-14T19:13:12.995Z,22.02
2023-02-14T19:15:39.483Z,21.83
2023-02-14T19:18:05.944Z,20.90
2023-02-14T19:20:32.393Z,25.63
2023-02-14T19:23:02.296Z,23.92
2023-02-14T19:25:29.443Z,25.98
2023-02-14T19:27:56.349Z,23.23
2023-02-14T19:30:22.837Z,23.08
2023-02-14T19:32:49.399Z,23.20
2023-02-14T19:35:15.976Z,22.55
2023-02-14T19:37:42.443Z,21.27
2023-02-14T19:40:10.888Z,19.90
2023-02-14T19:42:37.451Z,21.65
2023-02-14T19:45:04.257Z,23.80
2023-02-14T19:47:45.927Z,23.30
2023-02-14T19:50:13.498Z,29.02
2023-02-14T19:52:40.068Z,25.27
2023-02-14T19:55:10.121Z,24.30
2023-02-14T19:57:36.594Z,22.83
2023-02-14T20:00:04.078Z,26.30
2023-02-14T20:02:30.554Z,25.08
2023-02-14T20:05:01.036Z,23.40
2023-02-14T20:07:27.539Z,22.52
2023-02-14T20:09:54.776Z,22.48
2023-02-14T20:12:21.587Z,20.30
2023-02-14T20:14:51.804Z,18.77
2023-02-14T20:17:19.319Z,18.77
2023-02-14T20:19:46.041Z,18.13
2023-02-14T20:22:12.600Z,17.63
2023-02-14T20:24:39.129Z,18.63
2023-02-14T20:27:05.748Z,18.17
2023-02-14T20:29:33.234Z,16.83
2023-02-14T20:32:01.358Z,16.05
2023-02-14T20:34:31.463Z,16.48
2023-02-14T20:37:02.184Z,16.08
2023-02-14T20:39:34.388Z,15.90
2023-02-14T20:42:01.887Z,15.27
2023-02-14T20:44:28.858Z,15.80
2023-02-14T20:46:57.030Z,15.30
2023-02-14T20:49:25.269Z,15.43
2023-02-14T20:51:52.721Z,14.57
2023-02-14T20:54:21.414Z,14.43
2023-02-14T20:56:48.501Z,14.60
2023-02-14T20:59:15.044Z,15.57
2023-02-14T21:01:42.823Z,15.07
2023-02-14T21:04:09.320Z,13.45
2023-02-14T21:06:38.963Z,13.50
2023-02-14T21:09:06.487Z,12.80
2023-02-14T21:11:32.993Z,12.55
2023-02-14T21:14:01.190Z,12.10
2023-02-14T21:16:30.662Z,12.02
2023-02-14T21:18:58.994Z,11.93
2023-02-14T21:21:36.133Z,11.60
2023-02-14T21:24:08.322Z,11.23
2023-02-14T21:26:36.092Z,11.52
2023-02-14T21:29:03.035Z,11.90
2023-02-14T21:31:30.664Z,12.27
2023-02-14T21:33:59.310Z,13.00
2023-02-14T21:36:28.537Z,13.27
2023-02-14T21:38:59.741Z,14.10
2023-02-14T21:41:28.869Z,11.65
2023-02-14T21:43:57.396Z,11.80
2023-02-14T21:46:30.839Z,11.25
2023-02-14T21:49:18.513Z,11.02
2023-02-14T21:51:45.552Z,11.40
2023-02-14T21:54:12.226Z,10.13
2023-02-14T21:56:39.868Z,10.55
2023-02-14T21:59:06.443Z,12.07
2023-02-14T22:01:39.055Z,12.20
2023-02-14T22:04:09.941Z,11.98
2023-02-14T22:06:38.384Z,12.88
2023-02-14T22:09:12.943Z,17.55
2023-02-14T22:11:39.549Z,18.73
2023-02-14T22:14:06.055Z,21.10
2023-02-14T22:16:35.941Z,19.50
2023-02-14T22:19:03.764Z,18.55
2023-02-14T22:21:35.364Z,19.50
2023-02-14T22:24:02.151Z,19.70
2023-02-14T22:26:31.218Z,20.08
2023-02-14T22:28:59.441Z,18.10
2023-02-14T22:31:31.177Z,17.48
2023-02-14T22:34:05.977Z,17.45
2023-02-14T22:36:45.200Z,18.38
2023-02-14T22:39:19.690Z,18.00
2023-02-14T22:41:47.542Z,17.92
2023-02-14T22:44:14.352Z,16.63
2023-02-14T22:46:40.950Z,16.35
2023-02-14T22:49:07.714Z,15.57
2023-02-14T22:51:39.395Z,16.58
2023-02-14T22:54:15.231Z,16.95
2023-02-14T22:56:44.981Z,15.75
2023-02-14T22:59:20.251Z,15.57
2023-02-14T23:01:50.966Z,15.80
2023-02-14T23:04:21.972Z,15.80
2023-02-14T23:06:48.699Z,16.23
2023-02-14T23:09:15.600Z,16.20
2023-02-14T23:11:44.013Z,16.15
2023-02-14T23:14:33.155Z,16.27
2023-02-14T23:17:18.570Z,15.20
2023-02-14T23:20:04.835Z,13.90
2023-02-14T23:22:33.360Z,14.32
2023-02-14T23:25:01.871Z,13.55
2023-02-14T23:27:40.313Z,14.00
2023-02-14T23:30:10.857Z,13.93
2023-02-14T23:32:37.567Z,13.57
2023-02-14T23:35:04.758Z,12.77
2023-02-14T23:37:31.339Z,11.98
2023-02-14T23:39:57.827Z,11.80
2023-02-14T23:42:24.324Z,11.60
2023-02-14T23:44:55.185Z,11.27
2023-02-14T23:47:23.567Z,10.07
2023-02-14T23:49:50.060Z,10.43
2023-02-14T23:52:16.613Z,10.43
2023-02-14T23:54:43.142Z,10.52
2023-02-14T23:57:09.663Z,10.20
2023-02-14T23:59:36.330Z,9.70
